Holden Beach, North Carolina
Current Conditions -  °F | °C
As of 3:35 PM on Thursday 27 Nov 2014 (Local Time) from KSUT Reporting Station
Scattered Clouds Scattered Clouds  
Wind Chill: 53°   Ceiling: Unl
Heat Index: 53°   Visibility: 10mi
Dew Point: 36°   Wind: 13mph
Humidity: 52%   Direction: 300°WNW
Pressure: 30.05"   Gusts: 25mph
Location:  34.0499°N, 78.3076°W
Report Text: KSUT 272035Z AUTO 30011G22KT 10SM SCT043 SCT049 SCT060 12/02 A3005 RMK AO2 T01170022
Loading
Personal Weather Stations






























Interactive Weather Map New forecast layout! Learn more

10-Day Weather Forecast

Advertisements
Track Severe Weather on mobile